Time;durP1;ratioP1;P1;durP2;ratioP2;P2;SDS_P1;SDS_P2;PMS_P1;PMS_P2;Temp;Humidity;BMP_temperature;BMP_pressure;BME280_temperature;BME280_humidity;BME280_pressure;Samples;Min_cycle;Max_cycle;Signal;HPM_P1;HPM_P2
2023/10/09 00:00:35;;;;;;;5.25;1.30;;;;;;;22.88;46.17;98495.88;5087988;28;20175;-58
2023/10/09 00:03:01;;;;;;;5.35;1.60;;;;;;;22.89;46.00;98509.91;5088264;28;20180;-58
2023/10/09 00:08:30;;;;;;;5.63;2.17;;;;;;;22.90;46.69;98528.19;5027855;28;20288;-58
2023/10/09 00:10:58;;;;;;;4.60;1.88;;;;;;;22.72;47.00;98503.94;5028050;28;20178;-58
2023/10/09 00:13:29;;;;;;;5.85;2.05;;;;;;;22.78;46.97;98500.59;5027706;28;20253;-58
2023/10/09 00:15:59;;;;;;;8.02;1.90;;;;;;;22.81;47.09;98507.34;5028149;28;20218;-57
2023/10/09 00:18:29;;;;;;;10.15;2.00;;;;;;;22.91;46.81;98505.25;5027910;28;20676;-58
2023/10/09 00:21:11;;;;;;;10.40;1.90;;;;;;;22.83;47.08;98492.13;5027923;28;20197;-56
2023/10/09 00:23:37;;;;;;;3.88;1.75;;;;;;;22.76;47.33;98494.69;5027857;28;20272;-57
2023/10/09 00:26:16;;;;;;;7.25;1.80;;;;;;;22.73;47.33;98496.88;5027848;28;20182;-57
2023/10/09 00:28:44;;;;;;;8.48;2.17;;;;;;;;;;5027854;28;20181;-57
2023/10/09 00:31:14;;;;;;;8.25;1.75;;;;;;;22.86;47.44;98511.09;5037390;28;20251;-56
2023/10/09 00:33:41;;;;;;;8.85;2.17;;;;;;;22.83;47.75;98526.44;5047520;28;20184;-57
2023/10/09 00:36:10;;;;;;;5.55;2.00;;;;;;;22.55;47.86;98480.53;5047593;28;20188;-57
2023/10/09 00:38:39;;;;;;;9.73;2.28;;;;;;;22.64;48.29;98501.38;5047599;28;20204;-57
2023/10/09 00:43:35;;;;;;;8.63;2.20;;;;;;;22.60;48.03;98505.38;5047552;28;20643;-57
2023/10/09 00:46:03;;;;;;;9.20;2.22;;;;;;;22.42;48.45;98480.25;5130652;28;20166;-56
2023/10/09 00:48:37;;;;;;;9.80;2.53;;;;;;;22.55;48.50;98504.28;5131100;27;20179;-57
2023/10/09 00:51:16;;;;;;;7.85;1.65;;;;;;;22.46;48.89;98492.97;5134477;27;20174;-57
2023/10/09 00:53:50;;;;;;;11.57;2.20;;;;;;;22.51;48.89;98513.53;5134699;27;20174;-57
2023/10/09 00:56:28;;;;;;;9.88;2.47;;;;;;;22.65;49.02;98528.56;5134633;27;20174;-57
2023/10/09 00:59:08;;;;;;;5.80;2.28;;;;;;;22.43;49.12;98490.69;5134634;27;20166;-57
2023/10/09 01:01:35;;;;;;;7.25;1.92;;;;;;;22.52;49.43;98523.09;5134930;27;20175;-57
2023/10/09 01:04:09;;;;;;;7.57;2.10;;;;;;;22.31;49.45;98493.91;5133744;27;20592;-57
2023/10/09 01:06:42;;;;;;;6.43;1.85;;;;;;;22.29;49.17;98485.31;5134471;27;20500;-57
2023/10/09 01:09:14;;;;;;;6.47;1.90;;;;;;;22.32;49.04;98496.34;5134486;27;20170;-57
2023/10/09 01:14:24;;;;;;;6.30;1.90;;;;;;;22.36;49.32;98525.81;5134208;27;20206;-57
2023/10/09 01:16:53;;;;;;;6.80;2.40;;;;;;;22.23;49.48;98515.03;5134267;27;20166;-57
2023/10/09 01:19:25;;;;;;;4.55;1.80;;;;;;;22.15;49.41;98528.28;5134260;27;20179;-57
2023/10/09 01:21:54;;;;;;;7.22;1.80;;;;;;;22.03;49.50;98522.56;5134200;27;20295;-57
2023/10/09 01:24:22;;;;;;;9.98;2.15;;;;;;;22.02;49.48;98530.66;5133692;27;20186;-57
2023/10/09 01:26:49;;;;;;;5.72;1.95;;;;;;;22.12;49.44;98560.22;5134031;27;20666;-56
2023/10/09 01:29:23;;;;;;;5.95;1.80;;;;;;;21.85;49.76;98545.72;5134013;27;20175;-56
2023/10/09 01:32:00;;;;;;;3.97;1.98;;;;;;;21.75;50.02;98537.22;5134038;27;20166;-56
2023/10/09 01:34:38;;;;;;;5.15;2.38;;;;;;;21.87;50.81;98582.44;5133841;27;20210;-56
2023/10/09 01:37:22;;;;;;;5.03;2.00;;;;;;;21.72;51.33;98571.81;5133796;27;20207;-56
2023/10/09 01:39:50;;;;;;;7.22;2.15;;;;;;;21.55;51.45;98561.44;5133827;27;20179;-56
2023/10/09 01:42:34;;;;;;;7.45;2.20;;;;;;;21.59;51.80;98582.03;5133800;27;20182;-56
2023/10/09 01:45:10;;;;;;;11.20;2.55;;;;;;;21.47;52.00;98567.59;5133753;27;20209;-56
2023/10/09 01:47:37;;;;;;;6.05;2.22;;;;;;;21.50;51.70;98571.69;5133651;27;20193;-56
2023/10/09 01:50:05;;;;;;;8.95;2.55;;;;;;;21.52;51.61;98578.44;5133598;27;20171;-56
2023/10/09 01:52:30;;;;;;;4.75;1.60;;;;;;;21.56;51.55;98581.56;5133488;27;20549;-56
2023/10/09 01:55:02;;;;;;;7.97;2.25;;;;;;;21.50;51.79;98606.72;5133469;27;20190;-56
2023/10/09 01:57:30;;;;;;;10.63;1.77;;;;;;;21.42;51.40;98595.41;5133448;27;20269;-56
2023/10/09 01:59:57;;;;;;;4.07;2.20;;;;;;;21.42;51.40;98595.41;5132947;27;20206;-56
2023/10/09 02:02:26;;;;;;;7.30;2.15;;;;;;;21.49;51.06;98610.34;5133231;27;20643;-56
2023/10/09 02:07:40;;;;;;;6.90;2.00;;;;;;;21.55;51.37;98625.47;5132859;27;20643;-56
2023/10/09 02:10:11;;;;;;;7.90;2.22;;;;;;;21.48;51.26;98634.22;5133233;27;20166;-56
2023/10/09 02:12:37;;;;;;;18.02;2.53;;;;;;;21.05;55.61;98645.13;5133083;27;20314;-56
2023/10/09 02:15:15;;;;;;;25.92;3.55;;;;;;;20.52;59.78;98649.97;5133014;27;20201;-57
2023/10/09 02:17:52;;;;;;;18.40;2.92;;;;;;;20.30;61.71;98668.97;5133041;27;20661;-57
2023/10/09 02:20:19;;;;;;;22.67;3.35;;;;;;;20.15;63.81;98681.06;5133008;27;20200;-57
2023/10/09 02:22:44;;;;;;;19.92;2.85;;;;;;;19.67;65.58;98665.88;5133034;27;20265;-57
2023/10/09 02:25:11;;;;;;;27.08;3.63;;;;;;;19.34;67.71;98663.16;5132697;27;20249;-57
2023/10/09 02:27:44;;;;;;;20.00;2.67;;;;;;;19.10;68.82;98655.09;5133206;27;20179;-57
2023/10/09 02:30:15;;;;;;;23.60;2.53;;;;;;;19.24;69.35;98683.47;5132672;27;20180;-57
2023/10/09 02:32:42;;;;;;;18.63;3.17;;;;;;;19.30;70.31;98711.72;5132824;27;20178;-57
2023/10/09 02:35:37;;;;;;;21.20;2.85;;;;;;;18.97;71.03;98675.66;5132675;27;20241;-57
2023/10/09 02:37:58;;;;;;;17.10;2.90;;;;;;;18.90;71.46;98698.22;5132261;27;20178;-57
2023/10/09 02:40:31;;;;;;;13.70;2.15;;;;;;;18.70;70.56;98694.06;5132575;27;20265;-57
2023/10/09 02:42:58;;;;;;;11.02;2.20;;;;;;;18.60;68.36;98712.47;5132567;27;20188;-59
2023/10/09 02:45:29;;;;;;;14.18;1.60;;;;;;;18.70;67.76;98736.00;5132180;27;20645;-57
2023/10/09 02:47:55;;;;;;;13.30;2.20;;;;;;;18.31;66.86;98716.22;5132552;27;20175;-57
2023/10/09 02:50:22;;;;;;;12.05;1.80;;;;;;;18.19;66.97;98767.16;5132322;27;20645;-57
2023/10/09 02:52:59;;;;;;;15.95;2.05;;;;;;;17.93;66.91;98760.88;5132491;27;20587;-56
2023/10/09 02:55:26;;;;;;;10.93;1.50;;;;;;;17.82;66.51;98755.81;5132194;27;20210;-56
2023/10/09 02:58:04;;;;;;;17.23;1.98;;;;;;;17.88;65.69;98769.16;5131951;27;20175;-56
2023/10/09 03:00:31;;;;;;;10.35;2.30;;;;;;;17.30;65.94;98745.81;5132311;27;20170;-56
2023/10/09 03:02:58;;;;;;;9.30;1.55;;;;;;;17.14;66.69;98782.16;5132250;27;20174;-56
2023/10/09 03:05:27;;;;;;;10.00;1.88;;;;;;;17.18;66.18;98807.06;5132160;27;20178;-57
2023/10/09 03:07:53;;;;;;;14.10;1.63;;;;;;;17.17;66.24;98808.88;5132128;27;20179;-56
2023/10/09 03:10:21;;;;;;;14.55;2.25;;;;;;;16.95;65.72;98774.28;5132036;27;20206;-56
2023/10/09 03:12:51;;;;;;;7.47;1.58;;;;;;;17.09;64.02;98808.69;5131302;27;20716;-56
2023/10/09 03:15:18;;;;;;;10.40;1.30;;;;;;;16.90;63.87;98826.16;5131997;27;20198;-56
2023/10/09 03:17:44;;;;;;;8.57;1.55;;;;;;;16.64;64.46;98806.69;5132268;27;20175;-56
2023/10/09 03:20:13;;;;;;;11.15;1.60;;;;;;;16.77;64.24;98815.09;5131933;27;20179;-56
2023/10/09 03:22:40;;;;;;;5.65;1.42;;;;;;;16.82;63.82;98802.47;5131861;27;20174;-56
2023/10/09 03:25:12;;;;;;;12.57;1.42;;;;;;;16.62;63.86;98806.81;5131888;27;20620;-56
2023/10/09 03:27:47;;;;;;;7.78;1.23;;;;;;;16.65;63.59;98805.72;5131843;27;20186;-56
2023/10/09 03:30:25;;;;;;;6.85;1.40;;;;;;;16.78;62.95;98829.81;5131884;27;20166;-56
2023/10/09 03:32:52;;;;;;;5.80;2.00;;;;;;;16.56;63.36;98814.38;5131900;27;20182;-56
2023/10/09 03:35:25;;;;;;;10.30;1.45;;;;;;;16.61;63.51;98844.34;5131183;27;20202;-56
2023/10/09 03:38:02;;;;;;;8.82;1.50;;;;;;;16.35;63.93;98814.41;5130871;28;20185;-56
2023/10/09 03:40:28;;;;;;;18.58;2.08;;;;;;;16.49;64.03;98831.53;5131169;28;20178;-56
2023/10/09 03:42:53;;;;;;;10.88;1.75;;;;;;;16.54;63.75;98843.22;5131712;28;20185;-56
2023/10/09 03:45:26;;;;;;;13.73;1.58;;;;;;;16.49;63.66;98844.59;5131697;28;20174;-56
2023/10/09 03:48:01;;;;;;;9.07;1.90;;;;;;;16.31;63.11;98827.81;5131647;28;20174;-57
2023/10/09 03:50:35;;;;;;;12.95;1.70;;;;;;;16.48;62.98;98858.59;5131758;28;20654;-57
2023/10/09 03:53:02;;;;;;;8.63;1.40;;;;;;;16.07;63.71;98832.50;5131697;28;20179;-57
2023/10/09 03:55:27;;;;;;;11.15;2.10;;;;;;;15.91;63.93;98813.88;5131506;28;20729;-57
2023/10/09 03:57:53;;;;;;;13.30;1.73;;;;;;;15.72;64.60;98818.97;5131558;28;20186;-57
2023/10/09 04:00:28;;;;;;;13.98;1.38;;;;;;;15.92;65.02;98854.69;5131490;28;20254;-57
2023/10/09 04:02:58;;;;;;;6.57;1.70;;;;;;;15.94;64.75;98855.38;5131607;28;20175;-57
2023/10/09 04:05:24;;;;;;;6.35;1.70;;;;;;;15.88;64.68;98845.44;5131217;28;20543;-56
2023/10/09 04:07:52;;;;;;;5.70;1.48;;;;;;;15.84;64.56;98851.88;5131528;28;20178;-56
2023/10/09 04:10:43;;;;;;;14.05;1.70;;;;;;;15.65;65.03;98856.94;5131762;28;20171;-56
2023/10/09 04:13:11;;;;;;;5.80;1.88;;;;;;;15.81;65.11;98888.66;5131222;28;20539;-57
2023/10/09 04:15:37;;;;;;;5.78;1.23;;;;;;;15.71;65.36;98875.56;5131406;28;20202;-57
2023/10/09 04:18:05;;;;;;;8.50;1.30;;;;;;;15.87;64.68;98885.56;5131339;28;20547;-57
2023/10/09 04:23:05;;;;;;;4.22;1.80;;;;;;;15.73;65.07;98862.34;5131529;27;20175;-57
2023/10/09 04:25:41;;;;;;;5.50;1.30;;;;;;;15.94;64.46;98884.09;5135367;27;20178;-57
2023/10/09 04:28:22;;;;;;;15.23;2.20;;;;;;;15.98;64.42;98899.34;5135259;27;20201;-57
2023/10/09 04:30:53;;;;;;;9.98;1.95;;;;;;;15.80;64.75;98887.00;5071386;28;20195;-58
2023/10/09 04:33:28;;;;;;;3.97;1.70;;;;;;;15.77;64.33;98882.03;5071350;28;20288;-58
2023/10/09 04:38:55;;;;;;;5.78;2.05;;;;;;;15.84;64.10;98896.22;5071485;28;20634;-58
2023/10/09 04:41:28;;;;;;;5.32;1.65;;;;;;;15.95;63.63;98901.41;5071317;28;20184;-58
2023/10/09 04:47:18;;;;;;;4.65;1.60;;;;;;;15.64;64.09;98905.69;5071521;28;20192;-57
2023/10/09 04:49:52;;;;;;;7.53;2.10;;;;;;;15.42;64.74;98900.56;5070895;28;20546;-57
2023/10/09 04:58:00;;;;;;;7.20;1.70;;;;;;;15.33;64.73;98926.53;5070980;28;20185;-57
2023/10/09 05:16:28;;;;;;;4.95;1.85;;;;;;;15.25;62.50;98953.19;5134440;27;20206;-57
2023/10/09 05:19:03;;;;;;;8.15;1.75;;;;;;;15.41;61.45;98961.50;5134402;27;20171;-57
2023/10/09 05:32:05;;;;;;;6.03;1.60;;;;;;;15.29;61.41;98956.38;5134179;27;20181;-57
2023/10/09 05:34:34;;;;;;;8.85;1.90;;;;;;;15.27;60.96;98940.03;5133703;27;20201;-57
2023/10/09 06:06:42;;;;;;;7.45;3.55;;;;;;;14.57;60.26;99003.75;5133239;27;20190;-57
2023/10/09 06:17:23;;;;;;;9.23;3.83;;;;;;;14.85;58.44;99031.94;5029705;28;20277;-57
2023/10/09 06:19:48;;;;;;;6.38;3.78;;;;;;;14.91;58.70;99028.88;5029628;28;20248;-57
2023/10/09 06:25:08;;;;;;;7.00;3.95;;;;;;;15.13;57.42;99034.13;5029842;28;20679;-57
2023/10/09 06:30:23;;;;;;;4.30;3.42;;;;;;;15.36;57.35;99075.75;5029433;28;20324;-57
2023/10/09 06:32:57;;;;;;;10.25;3.95;;;;;;;15.20;57.36;99061.38;5029362;28;20193;-57
2023/10/09 06:35:30;;;;;;;5.22;3.45;;;;;;;15.05;57.21;99065.16;5029349;28;20214;-57
2023/10/09 06:48:40;;;;;;;6.78;3.60;;;;;;;15.30;56.15;99120.53;5029525;28;20770;-57
2023/10/09 06:58:57;;;;;;;6.80;2.70;;;;;;;15.10;56.58;99136.84;5120145;27;20198;-57
2023/10/09 07:01:39;;;;;;;3.47;2.17;;;;;;;14.98;56.06;99129.13;5111951;28;20175;-58
2023/10/09 07:06:56;;;;;;;3.97;2.40;;;;;;;15.07;55.96;99136.25;5111894;28;20278;-57
2023/10/09 07:09:22;;;;;;;7.20;2.47;;;;;;;14.91;56.24;99144.38;5111720;28;20650;-57
2023/10/09 07:25:14;;;;;;;2.80;1.58;;;;;;;15.34;53.46;99132.41;5111585;28;20501;-57
2023/10/09 07:38:19;;;;;;;5.70;2.05;;;;;;;15.39;54.32;99124.25;5111263;28;20180;-58
2023/10/09 07:43:45;;;;;;;2.78;1.80;;;;;;;15.89;53.58;99140.25;5111280;28;20240;-57
2023/10/09 07:46:30;;;;;;;3.85;1.70;;;;;;;15.89;52.91;99149.84;5111178;28;20239;-57
2023/10/09 07:48:57;;;;;;;6.25;1.70;;;;;;;16.00;52.46;99140.25;5111149;28;20680;-58
2023/10/09 07:51:30;;;;;;;5.32;1.73;;;;;;;16.06;51.86;99128.47;5111514;28;20179;-58
2023/10/09 07:53:57;;;;;;;3.70;2.10;;;;;;;16.05;52.24;99142.47;5111102;28;20205;-58
2023/10/09 07:56:23;;;;;;;2.80;2.30;;;;;;;16.22;52.07;99144.59;5111126;28;20176;-56
2023/10/09 07:58:49;;;;;;;3.45;2.00;;;;;;;16.37;50.96;99135.50;5112791;28;20167;-57
2023/10/09 08:01:16;;;;;;;3.67;1.90;;;;;;;16.41;50.42;99122.13;5115358;28;20236;-57
2023/10/09 08:03:47;;;;;;;2.47;2.00;;;;;;;16.46;51.47;99134.81;5115192;28;20650;-58
2023/10/09 08:12:13;;;;;;;3.05;2.00;;;;;;;16.40;50.41;99104.81;5115291;28;20554;-57
2023/10/09 08:14:48;;;;;;;2.20;1.80;;;;;;;16.67;49.92;99151.38;5115080;28;20299;-57
2023/10/09 08:17:15;;;;;;;4.20;1.88;;;;;;;16.24;50.40;99119.16;5115047;28;20332;-57
2023/10/09 08:19:54;;;;;;;4.85;2.10;;;;;;;16.28;50.59;99116.19;5114980;28;20175;-57
2023/10/09 08:24:55;;;;;;;4.70;1.83;;;;;;;16.17;51.54;99146.72;5114960;28;20566;-57
2023/10/09 08:30:12;;;;;;;2.30;2.08;;;;;;;16.39;51.86;99121.41;5114765;28;20665;-57
2023/10/09 08:32:42;;;;;;;3.17;2.20;;;;;;;16.77;50.76;99099.97;5114760;28;20261;-58
2023/10/09 08:37:53;;;;;;;3.63;2.30;;;;;;;17.28;48.78;99098.25;5114680;28;20174;-57
2023/10/09 08:40:20;;;;;;;4.18;2.80;;;;;;;17.46;48.99;99086.25;5114660;28;20204;-58
2023/10/09 08:42:52;;;;;;;5.13;2.13;;;;;;;17.62;48.01;99091.81;5114562;28;20320;-58
2023/10/09 08:45:27;;;;;;;3.67;2.40;;;;;;;17.97;47.79;99123.63;5114791;28;20175;-57
2023/10/09 08:47:54;;;;;;;5.13;2.38;;;;;;;17.43;47.84;99096.97;5114497;28;20186;-57
2023/10/09 08:50:20;;;;;;;5.00;2.35;;;;;;;17.31;48.48;99085.72;5114375;28;20175;-57
2023/10/09 08:52:48;;;;;;;8.98;3.00;;;;;;;17.22;49.18;99083.06;5114260;28;20262;-57
2023/10/09 08:55:16;;;;;;;5.55;2.97;;;;;;;17.60;49.11;99109.47;5114159;28;20203;-57
2023/10/09 08:57:44;;;;;;;3.78;2.75;;;;;;;17.53;49.33;99076.91;5114303;28;20565;-57
2023/10/09 09:00:21;;;;;;;5.15;2.75;;;;;;;17.76;49.00;99120.25;5114207;28;20250;-57
2023/10/09 09:02:47;;;;;;;6.07;2.92;;;;;;;17.83;48.74;99100.44;5113818;28;20627;-58
2023/10/09 09:05:23;;;;;;;10.93;3.42;;;;;;;17.94;48.85;99076.75;5114031;28;20186;-57
2023/10/09 09:07:49;;;;;;;7.57;3.67;;;;;;;17.96;48.84;99101.03;5114020;28;20659;-57
2023/10/09 09:10:18;;;;;;;9.07;3.83;;;;;;;18.07;48.65;99098.31;5112806;28;20250;-57
2023/10/09 09:12:47;;;;;;;14.23;3.78;;;;;;;18.47;48.36;99117.41;5113228;28;20353;-57
2023/10/09 09:15:20;;;;;;;9.10;3.20;;;;;;;18.64;47.52;99107.06;5113939;28;20206;-57
2023/10/09 09:17:46;;;;;;;6.47;3.08;;;;;;;18.76;47.18;99089.41;5113552;28;20661;-56
2023/10/09 09:20:45;;;;;;;8.70;3.78;;;;;;;18.98;47.00;99108.28;5113791;28;20214;-57
2023/10/09 09:23:12;;;;;;;6.90;3.20;;;;;;;19.14;47.04;99107.69;5010865;28;20238;-57
2023/10/09 09:25:47;;;;;;;5.05;2.85;;;;;;;19.08;46.46;99066.28;5010914;28;20194;-57
2023/10/09 09:28:19;;;;;;;6.90;2.85;;;;;;;19.47;45.79;99109.84;5010876;28;20257;-57
2023/10/09 09:30:50;;;;;;;11.90;3.08;;;;;;;19.31;45.85;99062.38;5010869;28;20183;-57
2023/10/09 09:34:04;;;;;;;10.40;3.33;;;;;;;19.61;45.80;99098.88;5010765;28;20669;-57
2023/10/09 09:36:12;;;;;;;5.55;3.45;;;;;;;19.52;46.48;99092.69;5007862;28;20222;-57
2023/10/09 09:38:50;;;;;;;7.07;2.58;;;;;;;19.66;45.87;99091.38;5010699;28;20181;-57
2023/10/09 09:41:24;;;;;;;5.03;2.55;;;;;;;19.60;45.48;99063.91;5010682;28;20291;-57
2023/10/09 09:43:56;;;;;;;24.50;3.60;;;;;;;19.73;45.41;99067.03;5010699;28;20183;-57
2023/10/09 09:46:34;;;;;;;8.02;2.88;;;;;;;19.74;45.49;99058.16;5010555;28;20250;-58
2023/10/09 09:49:01;;;;;;;9.52;2.70;;;;;;;19.92;44.94;99052.94;5010503;28;20186;-59
2023/10/09 09:51:30;;;;;;;11.13;3.40;;;;;;;20.18;44.73;99085.44;5010500;28;20182;-58
2023/10/09 09:53:55;;;;;;;4.38;2.90;;;;;;;20.04;44.45;99049.97;5010305;28;20196;-58
2023/10/09 09:56:25;;;;;;;10.00;2.97;;;;;;;20.07;44.54;99056.75;5010334;28;20269;-58
2023/10/09 09:58:56;;;;;;;4.45;2.63;;;;;;;20.03;44.08;99029.09;5034182;28;20232;-58
2023/10/09 10:01:28;;;;;;;10.05;3.50;;;;;;;20.25;44.43;99058.44;5113052;28;20183;-58
2023/10/09 10:04:21;;;;;;;4.93;3.00;;;;;;;20.18;44.72;99059.16;5112940;28;20176;-57
2023/10/09 10:06:50;;;;;;;6.60;3.00;;;;;;;20.07;45.09;99017.34;5108700;28;20179;-57
2023/10/09 10:09:39;;;;;;;5.68;2.85;;;;;;;20.36;44.76;99052.13;5112785;28;20247;-57
2023/10/09 10:12:11;;;;;;;9.50;3.25;;;;;;;20.53;44.34;99040.75;5069562;28;20271;-57
2023/10/09 10:15:14;;;;;;;7.90;3.20;;;;;;;20.75;44.23;99042.91;5069441;28;20228;-57
2023/10/09 10:18:00;;;;;;;10.10;2.97;;;;;;;20.81;43.50;99034.41;5068767;28;20172;-57
2023/10/09 10:20:26;;;;;;;8.73;3.42;;;;;;;20.51;43.83;99032.22;5069039;28;20240;-57
2023/10/09 10:23:17;;;;;;;10.88;2.90;;;;;;;20.59;44.04;99033.09;5069255;28;20625;-57
2023/10/09 10:25:48;;;;;;;6.15;2.90;;;;;;;20.68;44.20;99005.06;5068570;28;20192;-57
2023/10/09 10:31:07;;;;;;;8.77;3.20;;;;;;;21.18;42.35;99003.41;5069401;28;20336;-57
2023/10/09 10:33:54;;;;;;;4.95;2.55;;;;;;;21.48;41.73;99005.53;5069040;28;20354;-57
2023/10/09 10:36:23;;;;;;;5.00;2.80;;;;;;;21.21;42.34;98969.69;5069001;28;20180;-57
2023/10/09 10:39:10;;;;;;;9.45;2.70;;;;;;;21.21;42.64;98956.53;5068948;28;20193;-57
2023/10/09 10:41:54;;;;;;;7.90;2.47;;;;;;;21.08;42.41;98982.47;5068888;28;20249;-57
2023/10/09 10:44:37;;;;;;;13.25;2.65;;;;;;;20.96;42.25;98967.09;5111873;28;20273;-57
2023/10/09 10:47:47;;;;;;;6.38;2.58;;;;;;;20.91;42.83;98949.16;5111920;28;20193;-57
2023/10/09 10:50:45;;;;;;;8.80;2.55;;;;;;;20.75;42.37;98942.97;5108684;28;20254;-57
2023/10/09 10:52:57;;;;;;;5.78;2.10;;;;;;;20.62;42.43;98958.31;5083424;28;20192;-57
2023/10/09 10:57:54;;;;;;;9.70;2.40;;;;;;;20.54;42.95;98929.34;5088365;28;20180;-57
2023/10/09 11:03:19;;;;;;;4.15;2.30;;;;;;;21.06;42.71;98966.03;5028093;28;20194;-57
2023/10/09 11:05:51;;;;;;;5.05;2.70;;;;;;;21.00;42.46;98927.19;5028112;28;20248;-58
2023/10/09 11:08:22;;;;;;;7.25;3.40;;;;;;;21.22;42.01;98952.13;5027708;28;20664;-58
2023/10/09 11:10:54;;;;;;;5.20;2.30;;;;;;;21.25;42.01;98957.03;5027096;28;20185;-58
2023/10/09 11:13:36;;;;;;;6.30;2.10;;;;;;;21.18;41.75;98919.19;5026577;28;20748;-57
2023/10/09 11:16:14;;;;;;;7.30;2.30;;;;;;;21.58;41.42;98948.28;5027420;28;20248;-58
2023/10/09 11:18:48;;;;;;;7.63;2.75;;;;;;;21.55;40.98;98944.16;5028191;28;20217;-59
2023/10/09 11:26:29;;;;;;;3.90;2.03;;;;;;;21.92;40.18;98925.31;5027925;28;20212;-56
2023/10/09 11:29:14;;;;;;;7.63;2.00;;;;;;;21.79;40.45;98922.34;5027004;28;20260;-57
2023/10/09 11:31:45;;;;;;;4.95;2.80;;;;;;;21.76;40.32;98883.13;5027945;28;20755;-57
2023/10/09 11:34:28;;;;;;;9.88;2.72;;;;;;;22.08;39.53;98917.44;5027190;28;20186;-58
2023/10/09 11:36:58;;;;;;;8.65;2.50;;;;;;;22.24;39.47;98906.84;5028017;28;20236;-57
2023/10/09 11:39:34;;;;;;;5.97;2.08;;;;;;;22.36;40.00;98908.16;5049569;28;20274;-57
2023/10/09 11:42:09;;;;;;;6.93;1.88;;;;;;;22.44;38.79;98892.38;5111191;28;20663;-57
2023/10/09 11:44:39;;;;;;;5.03;2.20;;;;;;;22.53;38.38;98868.44;5111312;28;20170;-57
2023/10/09 11:52:35;;;;;;;5.28;1.70;;;;;;;22.39;38.82;98863.84;5111225;28;20649;-57
2023/10/09 11:55:06;;;;;;;5.60;1.63;;;;;;;22.18;38.58;98867.97;5111089;28;20306;-57
2023/10/09 11:57:33;;;;;;;4.72;1.70;;;;;;;22.06;38.33;98859.59;5111161;28;20629;-57
2023/10/09 12:00:00;;;;;;;9.50;2.10;;;;;;;21.80;38.99;98845.75;5110950;28;20183;-57
2023/10/09 12:02:26;;;;;;;4.45;2.35;;;;;;;22.08;38.34;98846.25;5111307;28;20187;-57
2023/10/09 12:04:51;;;;;;;4.10;1.73;;;;;;;22.16;38.14;98822.50;5111090;28;20561;-57
2023/10/09 12:07:20;;;;;;;7.55;2.15;;;;;;;22.45;37.88;98828.91;5111061;28;20208;-57
2023/10/09 12:09:47;;;;;;;9.48;2.22;;;;;;;22.59;37.47;98822.94;5110942;28;20236;-57
2023/10/09 12:12:13;;;;;;;2.90;1.98;;;;;;;22.51;37.17;98830.03;5111010;28;20175;-57
2023/10/09 12:14:39;;;;;;;4.85;1.75;;;;;;;22.80;37.65;98860.13;5110311;28;20199;-57
2023/10/09 12:17:06;;;;;;;6.68;2.00;;;;;;;22.80;37.08;98843.47;5110897;28;20186;-57
2023/10/09 12:19:35;;;;;;;3.92;1.70;;;;;;;22.61;37.19;98828.03;5110421;28;20615;-58
2023/10/09 12:22:03;;;;;;;3.28;2.15;;;;;;;22.76;37.21;98848.25;5067545;28;20623;-58
2023/10/09 12:24:33;;;;;;;3.85;2.25;;;;;;;22.68;37.38;98831.63;5067881;28;20283;-58
2023/10/09 12:26:59;;;;;;;4.28;2.28;;;;;;;22.44;37.07;98831.72;5067882;28;20188;-57
2023/10/09 12:29:26;;;;;;;5.10;2.20;;;;;;;22.09;37.45;98805.72;5068134;28;20677;-57
2023/10/09 12:31:58;;;;;;;5.97;2.45;;;;;;;22.11;38.32;98815.13;5067912;28;20188;-57
2023/10/09 12:34:26;;;;;;;5.53;2.25;;;;;;;22.27;38.51;98820.34;5067728;28;20250;-57
2023/10/09 12:36:52;;;;;;;6.20;2.05;;;;;;;22.49;38.55;98822.28;5067734;28;20193;-57
2023/10/09 12:39:18;;;;;;;3.15;2.28;;;;;;;21.92;38.54;98788.28;5067706;28;20248;-57
2023/10/09 12:41:44;;;;;;;6.57;2.42;;;;;;;21.89;38.28;98796.50;5067769;28;20181;-57
2023/10/09 12:44:18;;;;;;;6.57;2.20;;;;;;;21.98;38.76;98804.25;5067718;28;20356;-57
2023/10/09 12:46:51;;;;;;;2.63;2.05;;;;;;;22.01;38.62;98816.25;5071264;28;20215;-57
2023/10/09 12:49:26;;;;;;;5.40;2.72;;;;;;;21.88;39.31;98792.25;5071222;28;20686;-58
2023/10/09 12:51:57;;;;;;;4.30;2.17;;;;;;;21.79;38.55;98803.78;5072509;28;20192;-57
2023/10/09 12:54:28;;;;;;;2.88;1.80;;;;;;;21.52;39.43;98775.94;5110264;28;20207;-57
2023/10/09 12:56:55;;;;;;;8.13;2.25;;;;;;;21.43;39.23;98778.72;5114198;28;20649;-57
2023/10/09 12:59:21;;;;;;;2.15;1.95;;;;;;;21.43;39.61;98786.63;5049609;28;20197;-57
2023/10/09 13:01:52;;;;;;;4.95;2.13;;;;;;;21.36;40.19;98775.94;5050703;28;20189;-57
2023/10/09 13:04:21;;;;;;;7.97;2.50;;;;;;;21.31;40.25;98745.78;5050760;28;20655;-58
2023/10/09 13:06:47;;;;;;;4.63;2.55;;;;;;;21.36;39.72;98760.13;5050912;28;20177;-58
2023/10/09 13:09:14;;;;;;;4.78;1.70;;;;;;;21.32;39.97;98768.53;5050396;28;20200;-58
2023/10/09 13:11:40;;;;;;;5.70;2.28;;;;;;;21.32;39.95;98760.63;5050620;28;20224;-58
2023/10/09 13:14:16;;;;;;;3.05;1.77;;;;;;;21.15;39.93;98732.66;5050284;28;20240;-58
2023/10/09 13:16:45;;;;;;;8.27;1.80;;;;;;;21.34;40.59;98766.53;5050741;28;20681;-58
2023/10/09 13:19:11;;;;;;;2.97;1.90;;;;;;;21.21;39.92;98734.63;5050383;28;20587;-58
2023/10/09 13:21:39;;;;;;;7.60;2.45;;;;;;;21.20;40.31;98731.16;5050349;28;20272;-58
2023/10/09 13:24:12;;;;;;;4.93;1.95;;;;;;;21.03;41.39;98710.28;5050555;28;20196;-58
2023/10/09 13:26:38;;;;;;;5.20;1.90;;;;;;;20.84;42.51;98702.63;5050651;28;20184;-58
2023/10/09 13:29:08;;;;;;;6.47;2.10;;;;;;;21.02;41.66;98727.03;5050656;28;20695;-58
2023/10/09 13:31:37;;;;;;;4.15;2.00;;;;;;;20.63;41.48;98689.13;5071893;28;20180;-58
2023/10/09 13:34:06;;;;;;;4.70;2.13;;;;;;;20.68;41.72;98707.88;5089316;28;20680;-58
2023/10/09 13:36:33;;;;;;;6.13;2.20;;;;;;;20.45;42.18;98688.41;5090650;28;20249;-57
2023/10/09 13:41:49;;;;;;;2.22;2.00;;;;;;;20.44;42.33;98705.16;5090985;28;20271;-57
2023/10/09 13:44:15;;;;;;;3.40;1.77;;;;;;;20.36;42.66;98699.88;5090460;28;20184;-56
2023/10/09 13:46:43;;;;;;;6.03;1.67;;;;;;;20.39;42.56;98707.47;5090452;28;20655;-57
2023/10/09 13:49:12;;;;;;;7.03;1.88;;;;;;;20.38;42.60;98711.88;5101755;28;20701;-57
2023/10/09 13:51:46;;;;;;;5.05;2.08;;;;;;;20.01;44.07;98706.13;5113126;28;20676;-56
2023/10/09 13:54:21;;;;;;;4.95;2.13;;;;;;;19.82;44.28;98663.50;5113039;28;20190;-56
2023/10/09 13:56:52;;;;;;;7.78;2.08;;;;;;;19.84;43.88;98675.50;5112442;28;20182;-56
2023/10/09 13:59:21;;;;;;;6.20;2.20;;;;;;;20.04;44.13;98700.53;5113100;28;20175;-56
2023/10/09 14:01:47;;;;;;;4.38;1.95;;;;;;;20.00;43.73;98670.28;5113076;28;20629;-58
2023/10/09 14:04:18;;;;;;;3.75;1.80;;;;;;;20.09;43.52;98693.03;5112479;28;20540;-58
2023/10/09 14:06:44;;;;;;;6.20;2.05;;;;;;;20.02;43.66;98672.75;5112927;28;20175;-57
2023/10/09 14:09:11;;;;;;;3.25;1.90;;;;;;;20.00;43.29;98669.47;5112713;28;20183;-57
2023/10/09 14:11:37;;;;;;;5.95;1.73;;;;;;;19.89;43.89;98661.88;5112748;28;20175;-58
2023/10/09 14:14:09;;;;;;;5.95;2.10;;;;;;;19.91;43.56;98663.38;5111875;28;20663;-58
2023/10/09 14:16:37;;;;;;;9.07;2.08;;;;;;;19.78;43.88;98633.25;5112586;28;20210;-57
2023/10/09 14:19:07;;;;;;;8.73;2.60;;;;;;;19.85;44.13;98642.16;5111888;28;20641;-58
2023/10/09 14:21:37;;;;;;;7.15;1.90;;;;;;;19.75;44.66;98628.34;5108890;28;20179;-57
2023/10/09 14:24:03;;;;;;;6.47;2.10;;;;;;;19.79;45.50;98655.91;5111524;28;20645;-57
2023/10/09 14:26:29;;;;;;;6.72;2.33;;;;;;;19.66;45.07;98629.25;5111750;28;20163;-57
2023/10/09 14:28:59;;;;;;;5.07;1.98;;;;;;;19.74;45.72;98650.31;5112454;28;20190;-59
2023/10/09 14:31:28;;;;;;;6.10;1.83;;;;;;;19.69;45.69;98636.84;5112377;28;20163;-56
2023/10/09 14:33:56;;;;;;;5.30;2.20;;;;;;;19.63;46.31;98637.44;5112532;28;20194;-56
2023/10/09 14:36:23;;;;;;;11.23;2.08;;;;;;;19.56;46.11;98649.53;5112155;28;20199;-57
2023/10/09 14:38:52;;;;;;;6.95;1.98;;;;;;;19.69;45.52;98652.59;5112302;28;20179;-56
2023/10/09 14:41:23;;;;;;;6.70;2.20;;;;;;;19.50;45.83;98627.38;5111467;28;20190;-56
2023/10/09 14:43:52;;;;;;;2.80;1.75;;;;;;;19.47;46.53;98643.41;5110477;28;20187;-56
2023/10/09 14:46:25;;;;;;;5.53;1.88;;;;;;;19.40;46.59;98617.97;5111706;28;20558;-56
2023/10/09 14:48:52;;;;;;;11.50;2.55;;;;;;;19.42;46.92;98632.56;5111247;28;20183;-58